Penha, Brazil
Current Conditions -  °F | °C
As of 2:00 PM on Friday 19 Dec 2014 (Local Time) from SBNF Reporting Station
Broken Clouds Broken Clouds  
Wind Chill: 79°   Ceiling: 2500
Heat Index: 82°   Visibility: 6mi
Dew Point: 72°   Wind: 8mph
Humidity: 78%   Direction: 120°ESE
Pressure: 29.8"   Gusts: NA
Location:  26.77°S, 48.65°W
Report Text: SBNF 191600Z 12007KT 9999 FEW020 BKN025 26/22 Q1009
Loading
Personal Weather Stations






























Interactive Weather Map New forecast layout! Learn more

10-Day Weather Forecast

Advertisements
Track Severe Weather on mobile